createdAt,value
2017-11-07T00:01:05.501Z,102028.88
2017-11-07T00:03:33.112Z,102024.89
2017-11-07T00:06:00.706Z,102021.75
2017-11-07T00:08:28.267Z,102025.66
2017-11-07T00:10:55.684Z,102023.45
2017-11-07T00:13:23.074Z,102023.78
2017-11-07T00:15:50.637Z,102020.00
2017-11-07T00:18:18.118Z,102021.34
2017-11-07T00:23:12.456Z,102021.98
2017-11-07T00:25:40.077Z,102027.93
2017-11-07T00:28:07.575Z,102023.27
2017-11-07T00:30:35.003Z,102022.63
2017-11-07T00:33:02.513Z,102022.17
2017-11-07T00:35:30.039Z,102020.78
2017-11-07T00:37:57.625Z,102029.94
2017-11-07T00:40:25.254Z,102030.27
2017-11-07T00:42:52.848Z,102023.67
2017-11-07T00:45:20.267Z,102013.70
2017-11-07T00:47:47.694Z,102015.08
2017-11-07T00:50:15.090Z,102020.14
2017-11-07T00:52:42.542Z,102019.97
2017-11-07T00:55:09.990Z,102025.03
2017-11-07T00:57:37.393Z,102020.36
2017-11-07T01:00:04.811Z,102019.02
2017-11-07T01:02:32.208Z,102011.44
2017-11-07T01:04:59.632Z,102013.65
2017-11-07T01:07:27.033Z,102007.56
2017-11-07T01:09:54.426Z,102006.37
2017-11-07T01:12:21.832Z,102006.57
2017-11-07T01:14:49.243Z,102009.39
2017-11-07T01:17:16.807Z,101998.73
2017-11-07T01:19:44.252Z,101996.58
2017-11-07T01:22:11.654Z,101997.50
2017-11-07T01:24:39.058Z,101994.28
2017-11-07T01:27:06.522Z,101995.60
2017-11-07T01:29:33.913Z,102001.27
2017-11-07T01:32:01.318Z,101991.41
2017-11-07T01:34:28.722Z,101988.54
2017-11-07T01:36:56.124Z,101996.47
2017-11-07T01:39:23.514Z,101993.73
2017-11-07T01:41:50.927Z,101998.09
2017-11-07T01:44:18.327Z,101990.63
2017-11-07T01:46:45.754Z,101993.08
2017-11-07T01:49:13.220Z,101982.89
2017-11-07T01:51:40.632Z,101985.19
2017-11-07T01:54:08.128Z,101988.20
2017-11-07T01:56:35.582Z,101988.95
2017-11-07T01:59:02.985Z,101981.97
2017-11-07T02:01:30.381Z,101978.87
2017-11-07T02:03:57.815Z,101979.33
2017-11-07T02:06:25.194Z,101983.66
2017-11-07T02:08:52.613Z,101982.73
2017-11-07T02:11:20.015Z,101983.98
2017-11-07T02:13:47.471Z,101976.39
2017-11-07T02:16:14.871Z,101967.08
2017-11-07T02:18:42.273Z,101971.50
2017-11-07T02:21:09.659Z,101974.66
2017-11-07T02:23:37.092Z,101978.28
2017-11-07T02:26:04.486Z,101977.95
2017-11-07T02:28:31.893Z,101982.79
2017-11-07T02:30:59.367Z,101976.34
2017-11-07T02:33:26.766Z,101972.19
2017-11-07T02:35:54.154Z,101979.48
2017-11-07T02:38:21.559Z,101973.74
2017-11-07T02:40:48.962Z,101969.03
2017-11-07T02:43:16.355Z,101978.95
2017-11-07T02:45:43.758Z,101978.13
2017-11-07T02:48:11.248Z,101972.18
2017-11-07T02:50:38.707Z,101980.69
2017-11-07T02:53:06.103Z,101975.45
2017-11-07T02:55:33.528Z,101975.41
2017-11-07T02:58:00.904Z,101973.84
2017-11-07T03:00:28.308Z,101973.03
2017-11-07T03:02:55.711Z,101967.38
2017-11-07T03:05:23.139Z,101974.77
2017-11-07T03:07:50.604Z,101972.33
2017-11-07T03:10:18.000Z,101968.87
2017-11-07T03:12:45.498Z,101966.70
2017-11-07T03:15:12.902Z,101971.29
2017-11-07T03:17:40.291Z,101965.17
2017-11-07T03:20:07.698Z,101972.20
2017-11-07T03:22:35.122Z,101976.02
2017-11-07T03:25:02.582Z,101971.15
2017-11-07T03:27:29.980Z,101969.39
2017-11-07T03:29:57.405Z,101970.34
2017-11-07T03:32:24.862Z,101969.09
2017-11-07T03:34:52.303Z,101973.80
2017-11-07T03:37:19.698Z,101973.71
2017-11-07T03:39:47.102Z,101970.66
2017-11-07T03:42:14.497Z,101966.39
2017-11-07T03:44:41.902Z,101973.84
2017-11-07T03:47:09.295Z,101973.13
2017-11-07T03:49:36.702Z,101968.81
2017-11-07T03:52:04.090Z,101961.52
2017-11-07T03:54:31.539Z,101964.45
2017-11-07T03:56:58.944Z,101964.91
2017-11-07T03:59:26.347Z,101967.55
2017-11-07T04:01:53.753Z,101970.10
2017-11-07T04:04:21.151Z,101964.53
2017-11-07T04:06:48.547Z,101968.47
2017-11-07T04:09:15.971Z,101968.80
2017-11-07T04:11:43.426Z,101971.06
2017-11-07T04:14:10.909Z,101976.89
2017-11-07T04:16:38.312Z,101972.73
2017-11-07T04:19:05.763Z,101973.57
2017-11-07T04:21:33.164Z,101969.20
2017-11-07T04:24:00.559Z,101969.77
2017-11-07T04:26:27.955Z,101977.87
2017-11-07T04:28:55.343Z,101962.55
2017-11-07T04:31:22.767Z,101965.58
2017-11-07T04:33:50.158Z,101968.06
2017-11-07T04:36:17.558Z,101959.44
2017-11-07T04:38:45.041Z,101956.73
2017-11-07T04:41:12.443Z,101958.74
2017-11-07T04:43:39.830Z,101956.45
2017-11-07T04:46:07.268Z,101953.64
2017-11-07T04:48:34.658Z,101956.27
2017-11-07T04:51:02.065Z,101956.19
2017-11-07T04:53:29.455Z,101960.59
2017-11-07T04:55:56.857Z,101957.06
2017-11-07T04:58:24.246Z,101962.17
2017-11-07T05:00:51.654Z,101963.38
2017-11-07T05:03:19.090Z,101971.09
2017-11-07T05:05:46.492Z,101971.16
2017-11-07T05:08:13.891Z,101972.76
2017-11-07T05:10:41.344Z,101972.80
2017-11-07T05:13:08.738Z,101968.41
2017-11-07T05:15:36.177Z,101970.69
2017-11-07T05:18:03.566Z,101969.31
2017-11-07T05:20:30.967Z,101978.05
2017-11-07T05:22:58.374Z,101977.55
2017-11-07T05:25:25.754Z,101974.55
2017-11-07T05:27:53.234Z,101976.82
2017-11-07T05:30:20.683Z,101982.86
2017-11-07T05:32:48.090Z,101976.27
2017-11-07T05:35:15.499Z,101983.15
2017-11-07T05:37:42.902Z,101987.20
2017-11-07T05:40:10.319Z,101985.53
2017-11-07T05:42:37.771Z,101990.20
2017-11-07T05:45:05.166Z,101977.15
2017-11-07T05:47:32.594Z,101984.44
2017-11-07T05:50:00.048Z,101974.54
2017-11-07T05:52:27.497Z,101981.03
2017-11-07T05:54:54.894Z,101980.64
2017-11-07T05:57:23.107Z,101980.97
2017-11-07T05:59:50.491Z,101980.86
2017-11-07T06:02:17.890Z,101981.65
2017-11-07T06:04:45.278Z,101988.09
2017-11-07T06:07:12.675Z,101984.08
2017-11-07T06:09:40.076Z,101979.59
2017-11-07T06:12:07.474Z,101983.78
2017-11-07T06:14:34.867Z,101980.06
2017-11-07T06:17:02.271Z,101985.53
2017-11-07T06:19:29.730Z,101984.72
2017-11-07T06:21:57.174Z,101988.27
2017-11-07T06:24:24.575Z,101989.55
2017-11-07T06:26:51.979Z,101991.08
2017-11-07T06:29:19.373Z,101997.55
2017-11-07T06:31:46.771Z,101992.14
2017-11-07T06:34:14.169Z,101995.81
2017-11-07T06:36:41.614Z,101996.66
2017-11-07T06:39:09.007Z,101999.87
2017-11-07T06:41:36.402Z,101998.33
2017-11-07T06:44:03.799Z,101994.15
2017-11-07T06:46:31.190Z,101990.83
2017-11-07T06:48:58.590Z,101981.20
2017-11-07T06:51:25.982Z,101988.63
2017-11-07T06:53:53.399Z,101987.81
2017-11-07T06:56:20.791Z,101984.31
2017-11-07T06:58:48.194Z,101982.14
2017-11-07T07:01:15.646Z,101978.36
2017-11-07T07:03:43.051Z,101974.52
2017-11-07T07:06:10.486Z,101976.30
2017-11-07T07:08:37.859Z,101971.02
2017-11-07T07:11:05.292Z,101972.56
2017-11-07T07:13:32.680Z,101975.98
2017-11-07T07:16:00.074Z,101978.25
2017-11-07T07:18:27.463Z,101974.89
2017-11-07T07:20:54.868Z,101973.19
2017-11-07T07:23:22.358Z,101978.81
2017-11-07T07:25:49.750Z,101972.65
2017-11-07T07:28:17.167Z,101965.14
2017-11-07T07:30:44.625Z,101963.06
2017-11-07T07:33:12.090Z,101963.52
2017-11-07T07:35:39.487Z,101964.05
2017-11-07T07:38:06.888Z,101959.98
2017-11-07T07:40:34.396Z,101960.28
2017-11-07T07:43:01.854Z,101962.55
2017-11-07T07:45:29.307Z,101964.16
2017-11-07T07:47:56.701Z,101963.78
2017-11-07T07:50:24.098Z,101957.83
2017-11-07T07:52:51.492Z,101956.11
2017-11-07T07:55:18.886Z,101952.80
2017-11-07T07:57:46.288Z,101954.01
2017-11-07T08:00:13.682Z,101959.39
2017-11-07T08:02:41.084Z,101950.62
2017-11-07T08:05:08.483Z,101956.22
2017-11-07T08:07:35.870Z,101960.16
2017-11-07T08:10:03.277Z,101951.98
2017-11-07T08:12:30.671Z,101953.11
2017-11-07T08:14:58.067Z,101949.99
2017-11-07T08:17:25.454Z,101955.23
2017-11-07T08:19:52.862Z,101955.98
2017-11-07T08:22:20.339Z,101946.80
2017-11-07T08:24:47.803Z,101949.34
2017-11-07T08:27:15.191Z,101947.63
2017-11-07T08:29:42.615Z,101950.53
2017-11-07T08:32:10.058Z,101946.59
2017-11-07T08:34:37.460Z,101937.42
2017-11-07T08:37:04.850Z,101941.89
2017-11-07T08:39:32.269Z,101948.32
2017-11-07T08:41:59.662Z,101945.27
2017-11-07T08:44:27.137Z,101945.11
2017-11-07T08:46:54.594Z,101942.81
2017-11-07T08:49:21.982Z,101942.05
2017-11-07T08:51:49.373Z,101940.31
2017-11-07T08:54:16.759Z,101941.23
2017-11-07T08:56:44.147Z,101944.31
2017-11-07T08:59:11.548Z,101950.24
2017-11-07T09:01:38.927Z,101944.03
2017-11-07T09:04:06.374Z,101949.83
2017-11-07T09:06:33.841Z,101942.52
2017-11-07T09:09:01.218Z,101955.25
2017-11-07T09:11:28.646Z,101947.02
2017-11-07T09:13:56.105Z,101945.69
2017-11-07T09:16:23.495Z,101940.38
2017-11-07T09:18:50.877Z,101943.77
2017-11-07T09:21:18.271Z,101939.14
2017-11-07T09:23:45.726Z,101939.12
2017-11-07T09:26:13.134Z,101939.55
2017-11-07T09:28:40.523Z,101938.77
2017-11-07T09:31:07.907Z,101934.73
2017-11-07T09:33:35.354Z,101939.08
2017-11-07T09:36:02.743Z,101936.84
2017-11-07T09:38:30.134Z,101933.64
2017-11-07T09:40:57.515Z,101936.19
2017-11-07T09:43:24.978Z,101943.79
2017-11-07T09:45:52.366Z,101938.91
2017-11-07T09:48:19.793Z,101937.36
2017-11-07T09:50:47.176Z,101932.75
2017-11-07T09:53:14.570Z,101926.36
2017-11-07T09:55:42.051Z,101933.02
2017-11-07T09:58:09.446Z,101925.94
2017-11-07T10:00:36.889Z,101926.17
2017-11-07T10:03:04.278Z,101926.62
2017-11-07T10:05:31.679Z,101924.09
2017-11-07T10:07:59.067Z,101923.80
2017-11-07T10:10:26.487Z,101929.43
2017-11-07T10:12:53.879Z,101926.86
2017-11-07T10:15:21.257Z,101925.09
2017-11-07T10:17:48.650Z,101933.75
2017-11-07T10:20:16.035Z,101927.16
2017-11-07T10:22:43.428Z,101916.19
2017-11-07T10:25:10.810Z,101912.71
2017-11-07T10:27:38.213Z,101918.19
2017-11-07T10:30:05.598Z,101915.66
2017-11-07T10:32:33.002Z,101904.84
2017-11-07T10:35:00.432Z,101905.03
2017-11-07T10:37:27.886Z,101901.98
2017-11-07T10:39:55.287Z,101896.69
2017-11-07T10:42:22.707Z,101889.30
2017-11-07T10:44:50.102Z,101886.19
2017-11-07T10:47:17.582Z,101885.97
2017-11-07T10:49:44.971Z,101877.17
2017-11-07T10:52:12.359Z,101863.44
2017-11-07T10:54:39.756Z,101864.58
2017-11-07T10:57:07.140Z,101873.05
2017-11-07T10:59:34.524Z,101877.83
2017-11-07T11:02:01.913Z,101881.17
2017-11-07T11:04:29.312Z,101868.97
2017-11-07T11:06:56.724Z,101862.56
2017-11-07T11:09:24.099Z,101861.39
2017-11-07T11:11:51.482Z,101856.05
2017-11-07T11:14:18.978Z,101851.33
2017-11-07T11:16:46.374Z,101850.44
2017-11-07T11:19:13.794Z,101849.72
2017-11-07T11:21:41.176Z,101844.89
2017-11-07T11:24:08.568Z,101844.87
2017-11-07T11:26:36.059Z,101836.41
2017-11-07T11:29:03.457Z,101839.12
2017-11-07T11:31:30.842Z,101834.61
2017-11-07T11:33:58.226Z,101830.36
2017-11-07T11:36:25.619Z,101834.91
2017-11-07T11:38:53.019Z,101834.70
2017-11-07T11:41:20.471Z,101837.30
2017-11-07T11:43:47.954Z,101828.78
2017-11-07T11:46:15.402Z,101827.55
2017-11-07T11:48:42.799Z,101825.53
2017-11-07T11:51:10.210Z,101826.22
2017-11-07T11:53:37.675Z,101824.38
2017-11-07T11:56:05.072Z,101816.69
2017-11-07T11:58:32.454Z,101811.93
2017-11-07T12:00:59.947Z,101808.12
2017-11-07T12:03:27.344Z,101804.48
2017-11-07T12:05:54.751Z,101800.97
2017-11-07T12:08:22.135Z,101801.50
2017-11-07T12:10:49.532Z,101797.24
2017-11-07T12:13:16.915Z,101797.52
2017-11-07T12:15:44.315Z,101795.64
2017-11-07T12:18:11.699Z,101798.45
2017-11-07T12:20:39.095Z,101791.14
2017-11-07T12:23:06.487Z,101786.85
2017-11-07T12:25:33.877Z,101780.27
2017-11-07T12:28:01.270Z,101779.58
2017-11-07T12:30:28.666Z,101773.72
2017-11-07T12:32:56.130Z,101773.92
2017-11-07T12:35:23.524Z,101772.16
2017-11-07T12:37:50.911Z,101766.72
2017-11-07T12:40:18.328Z,101768.73
2017-11-07T12:42:45.728Z,101768.25
2017-11-07T12:45:13.115Z,101763.73
2017-11-07T12:47:40.511Z,101760.56
2017-11-07T12:50:19.923Z,101763.13
2017-11-07T12:52:47.379Z,101760.41
2017-11-07T12:55:14.766Z,101757.11
2017-11-07T12:57:42.155Z,101757.84
2017-11-07T13:00:09.555Z,101752.32
2017-11-07T13:02:36.949Z,101747.14
2017-11-07T13:05:04.350Z,101748.77
2017-11-07T13:07:31.821Z,101749.73
2017-11-07T13:09:59.211Z,101756.05
2017-11-07T13:12:26.652Z,101757.66
2017-11-07T13:14:54.025Z,101750.64
2017-11-07T13:17:21.422Z,101756.27
2017-11-07T13:19:48.812Z,101748.56
2017-11-07T13:22:16.291Z,101743.71
2017-11-07T13:24:43.679Z,101741.83
2017-11-07T13:27:11.072Z,101739.41
2017-11-07T13:29:38.464Z,101735.98
2017-11-07T13:32:05.873Z,101743.12
2017-11-07T13:34:33.262Z,101730.52
2017-11-07T13:37:00.660Z,101723.81
2017-11-07T13:39:28.099Z,101724.92
2017-11-07T13:41:55.498Z,101718.22
2017-11-07T13:44:22.911Z,101707.48
2017-11-07T13:46:50.311Z,101699.77
2017-11-07T13:49:17.718Z,101693.45
2017-11-07T13:51:45.116Z,101702.94
2017-11-07T13:54:12.502Z,101681.40
2017-11-07T13:56:39.892Z,101679.45
2017-11-07T13:59:07.283Z,101672.28
2017-11-07T14:01:34.676Z,101663.51
2017-11-07T14:04:02.064Z,101654.03
2017-11-07T14:06:29.446Z,101654.19
2017-11-07T14:08:56.838Z,101661.22
2017-11-07T14:11:24.306Z,101646.65
2017-11-07T14:13:51.703Z,101646.16
2017-11-07T14:16:19.118Z,101642.41
2017-11-07T14:18:46.524Z,101640.30
2017-11-07T14:21:13.910Z,101645.55
2017-11-07T14:23:41.308Z,101643.05
2017-11-07T14:26:08.695Z,101635.45
2017-11-07T14:28:36.194Z,101626.97
2017-11-07T14:31:03.597Z,101628.13
2017-11-07T14:33:30.990Z,101624.50
2017-11-07T14:35:58.484Z,101625.10
2017-11-07T14:38:25.966Z,101621.81
2017-11-07T14:40:53.406Z,101623.50
2017-11-07T14:43:20.810Z,101617.44
2017-11-07T14:45:48.221Z,101614.09
2017-11-07T14:48:15.594Z,101610.38
2017-11-07T14:50:43.063Z,101609.49
2017-11-07T14:53:10.455Z,101606.64
2017-11-07T14:55:37.855Z,101606.16
2017-11-07T14:58:05.255Z,101605.46
2017-11-07T15:00:32.650Z,101601.45
2017-11-07T15:03:00.047Z,101596.86
2017-11-07T15:05:27.455Z,101599.96
2017-11-07T15:07:55.077Z,101601.49
2017-11-07T15:10:22.554Z,101593.58
2017-11-07T15:12:49.935Z,101602.53
2017-11-07T15:15:17.384Z,101600.63
2017-11-07T15:17:44.798Z,101598.58
2017-11-07T15:20:12.190Z,101596.10
2017-11-07T15:22:39.661Z,101588.19
2017-11-07T15:25:07.078Z,101589.35
2017-11-07T15:27:34.474Z,101586.81
2017-11-07T15:30:01.880Z,101585.15
2017-11-07T15:32:29.275Z,101576.88
2017-11-07T15:34:56.731Z,101581.08
2017-11-07T15:37:24.193Z,101579.86
2017-11-07T15:39:51.607Z,101578.08
2017-11-07T15:42:19.028Z,101575.55
2017-11-07T15:44:46.448Z,101574.70
2017-11-07T15:47:13.879Z,101568.28
2017-11-07T15:49:41.287Z,101565.69
2017-11-07T15:52:08.687Z,101565.53
2017-11-07T15:54:36.149Z,101560.52
2017-11-07T15:57:03.543Z,101555.49
2017-11-07T15:59:31.033Z,101551.82
2017-11-07T16:01:58.455Z,101554.17
2017-11-07T16:04:25.838Z,101554.80
2017-11-07T16:06:53.224Z,101546.80
2017-11-07T16:09:20.627Z,101546.56
2017-11-07T16:11:48.027Z,101544.23
2017-11-07T16:14:15.422Z,101549.91
2017-11-07T16:16:42.878Z,101548.41
2017-11-07T16:19:10.332Z,101552.28
2017-11-07T16:21:37.747Z,101553.48
2017-11-07T16:24:05.260Z,101551.91
2017-11-07T16:26:32.709Z,101554.67
2017-11-07T16:29:00.148Z,101558.38
2017-11-07T16:31:27.547Z,101561.33
2017-11-07T16:33:54.934Z,101559.00
2017-11-07T16:36:22.428Z,101561.88
2017-11-07T16:38:49.842Z,101560.34
2017-11-07T16:41:17.238Z,101559.55
2017-11-07T16:43:44.628Z,101557.16
2017-11-07T16:46:12.040Z,101560.15
2017-11-07T16:48:39.498Z,101559.33
2017-11-07T16:51:06.899Z,101561.69
2017-11-07T16:53:34.319Z,101557.23
2017-11-07T16:56:01.758Z,101558.08
2017-11-07T16:58:29.156Z,101552.89
2017-11-07T17:00:56.579Z,101560.41
2017-11-07T17:03:24.030Z,101553.20
2017-11-07T17:05:51.427Z,101547.84
2017-11-07T17:08:18.816Z,101540.89
2017-11-07T17:10:46.298Z,101541.25
2017-11-07T17:13:13.681Z,101542.63
2017-11-07T17:15:41.075Z,101544.46
2017-11-07T17:18:08.468Z,101543.78
2017-11-07T17:20:35.862Z,101548.52
2017-11-07T17:23:03.256Z,101542.38
2017-11-07T17:25:30.656Z,101539.94
2017-11-07T17:27:58.049Z,101545.84
2017-11-07T17:30:25.560Z,101551.70
2017-11-07T17:32:53.007Z,101549.19
2017-11-07T17:35:20.390Z,101549.77
2017-11-07T17:37:47.799Z,101535.64
2017-11-07T17:40:15.269Z,101540.47
2017-11-07T17:42:42.682Z,101539.92
2017-11-07T17:45:10.062Z,101535.66
2017-11-07T17:47:37.459Z,101531.47
2017-11-07T17:50:04.851Z,101528.27
2017-11-07T17:52:32.249Z,101522.70
2017-11-07T17:54:59.639Z,101524.84
2017-11-07T17:57:27.055Z,101527.65
2017-11-07T17:59:54.512Z,101527.56
2017-11-07T18:02:21.931Z,101525.00
2017-11-07T18:04:49.355Z,101524.28
2017-11-07T18:07:16.758Z,101526.34
2017-11-07T18:09:44.235Z,101524.22
2017-11-07T18:12:11.622Z,101525.99
2017-11-07T18:14:39.040Z,101522.94
2017-11-07T18:17:06.422Z,101525.50
2017-11-07T18:19:33.821Z,101518.44
2017-11-07T18:22:01.313Z,101525.57
2017-11-07T18:24:28.766Z,101531.95
2017-11-07T18:26:56.163Z,101523.37
2017-11-07T18:29:23.578Z,101520.81
2017-11-07T18:31:51.039Z,101521.13
2017-11-07T18:34:18.419Z,101508.96
2017-11-07T18:36:45.830Z,101510.34
2017-11-07T18:39:13.299Z,101505.52
2017-11-07T18:41:40.691Z,101492.24
2017-11-07T18:44:08.082Z,101497.73
2017-11-07T18:46:35.582Z,101499.52
2017-11-07T18:49:02.963Z,101497.91
2017-11-07T18:51:30.383Z,101495.28
2017-11-07T18:53:57.765Z,101497.78
2017-11-07T18:56:25.184Z,101493.77
2017-11-07T18:58:52.574Z,101489.47
2017-11-07T19:01:20.106Z,101491.88
2017-11-07T19:03:47.496Z,101490.11
2017-11-07T19:06:14.908Z,101485.89
2017-11-07T19:08:42.301Z,101478.15
2017-11-07T19:11:09.693Z,101477.61
2017-11-07T19:13:37.088Z,101478.11
2017-11-07T19:16:04.535Z,101472.78
2017-11-07T19:18:31.932Z,101464.37
2017-11-07T19:20:59.341Z,101467.89
2017-11-07T19:23:26.738Z,101470.36
2017-11-07T19:25:54.121Z,101459.11
2017-11-07T19:28:21.527Z,101467.18
2017-11-07T19:30:48.922Z,101461.41
2017-11-07T19:33:16.436Z,101460.08
2017-11-07T19:35:43.826Z,101461.13
2017-11-07T19:38:11.235Z,101458.98
2017-11-07T19:40:38.635Z,101453.16
2017-11-07T19:43:06.074Z,101455.75
2017-11-07T19:45:33.494Z,101451.82
2017-11-07T19:48:00.883Z,101446.27
2017-11-07T19:50:28.310Z,101446.27
2017-11-07T19:52:55.786Z,101444.95
2017-11-07T19:55:23.233Z,101438.72
2017-11-07T19:57:50.610Z,101441.27
2017-11-07T20:00:18.010Z,101440.66
2017-11-07T20:02:45.486Z,101432.42
2017-11-07T20:05:12.879Z,101427.44
2017-11-07T20:07:40.302Z,101428.75
2017-11-07T20:10:07.721Z,101425.91
2017-11-07T20:12:35.114Z,101426.30
2017-11-07T20:15:02.504Z,101423.27
2017-11-07T20:17:29.892Z,101423.66
2017-11-07T20:19:57.374Z,101418.68
2017-11-07T20:22:24.773Z,101419.18
2017-11-07T20:24:52.178Z,101421.03
2017-11-07T20:27:19.643Z,101410.71
2017-11-07T20:29:47.027Z,101411.48
2017-11-07T20:32:14.445Z,101409.66
2017-11-07T20:34:41.828Z,101413.83
2017-11-07T20:37:09.280Z,101409.58
2017-11-07T20:39:36.662Z,101409.36
2017-11-07T20:42:04.068Z,101404.14
2017-11-07T20:44:31.458Z,101401.05
2017-11-07T20:46:58.863Z,101402.64
2017-11-07T20:51:56.474Z,101401.29
2017-11-07T20:54:23.868Z,101407.13
2017-11-07T20:56:51.370Z,101404.30
2017-11-07T20:59:18.758Z,101407.01
2017-11-07T21:01:46.163Z,101410.33
2017-11-07T21:04:13.554Z,101395.91
2017-11-07T21:06:40.982Z,101401.12
2017-11-07T21:09:08.443Z,101394.14
2017-11-07T21:11:35.835Z,101390.97
2017-11-07T21:14:03.236Z,101384.09
2017-11-07T21:16:30.623Z,101387.00
2017-11-07T21:18:58.023Z,101378.00
2017-11-07T21:21:26.217Z,101375.41
2017-11-07T21:23:53.706Z,101372.20
2017-11-07T21:26:21.103Z,101375.21
2017-11-07T21:28:48.495Z,101368.10
2017-11-07T21:31:15.887Z,101366.55
2017-11-07T21:33:43.279Z,101369.07
2017-11-07T21:36:10.683Z,101363.70
2017-11-07T21:38:38.084Z,101374.75
2017-11-07T21:41:05.500Z,101367.33
2017-11-07T21:43:32.906Z,101361.23
2017-11-07T21:46:00.298Z,101367.30
2017-11-07T21:48:27.962Z,101367.06
2017-11-07T21:50:55.375Z,101359.64
2017-11-07T21:53:22.767Z,101356.05
2017-11-07T21:55:50.167Z,101353.43
2017-11-07T21:58:17.563Z,101352.42
2017-11-07T22:00:44.970Z,101347.52
2017-11-07T22:03:12.386Z,101345.25
2017-11-07T22:05:39.850Z,101344.36
2017-11-07T22:08:07.243Z,101345.63
2017-11-07T22:10:34.670Z,101346.52
2017-11-07T22:13:02.055Z,101342.31
2017-11-07T22:15:29.579Z,101338.30
2017-11-07T22:20:53.934Z,101335.55
2017-11-07T22:23:26.359Z,101332.66
2017-11-07T22:25:53.814Z,101326.82
2017-11-07T22:28:21.215Z,101325.78
2017-11-07T22:30:48.607Z,101325.94
2017-11-07T22:33:15.995Z,101334.19
2017-11-07T22:35:43.414Z,101331.70
2017-11-07T22:38:10.816Z,101331.79
2017-11-07T22:40:38.207Z,101327.52
2017-11-07T22:43:05.617Z,101328.16
2017-11-07T22:45:33.010Z,101329.97
2017-11-07T22:48:00.426Z,101326.06
2017-11-07T22:50:27.822Z,101329.00
2017-11-07T22:52:55.218Z,101327.09
2017-11-07T22:55:22.607Z,101314.14
2017-11-07T22:57:50.008Z,101321.09
2017-11-07T23:00:17.495Z,101321.98
2017-11-07T23:02:44.942Z,101315.75
2017-11-07T23:05:12.343Z,101314.63
2017-11-07T23:07:39.745Z,101315.22
2017-11-07T23:10:07.180Z,101313.48
2017-11-07T23:12:34.561Z,101312.53
2017-11-07T23:15:01.976Z,101308.80
2017-11-07T23:17:29.359Z,101306.44
2017-11-07T23:19:56.829Z,101302.11
2017-11-07T23:22:24.216Z,101305.20
2017-11-07T23:24:51.628Z,101303.86
2017-11-07T23:27:19.009Z,101299.87
2017-11-07T23:29:46.418Z,101295.00
2017-11-07T23:32:13.817Z,101295.30
2017-11-07T23:34:41.197Z,101299.02
2017-11-07T23:37:08.619Z,101296.98
2017-11-07T23:39:36.065Z,101290.33
2017-11-07T23:42:03.459Z,101293.55
2017-11-07T23:44:30.854Z,101285.50
2017-11-07T23:46:58.356Z,101283.42
2017-11-07T23:49:25.757Z,101283.45
2017-11-07T23:51:53.151Z,101281.77
2017-11-07T23:54:20.580Z,101287.02
2017-11-07T23:56:48.013Z,101281.46
2017-11-07T23:59:21.946Z,101279.93
